Cheticamp, Canada
Current Conditions -  °F | °C
As of 4:00 PM on Sunday 21 Dec 2014 (Local Time) from CYQY Reporting Station
Overcast Overcast  
Wind Chill: 22°   Ceiling: 1900
Heat Index: 30°   Visibility: 15mi
Dew Point: 23°   Wind: 9mph
Humidity: 75%   Direction: 340°NNW
Pressure: 30.35"   Gusts: NA
Location:  46.63°N, 61.01°W
Report Text: CYQY 212000Z 34008KT 15SM OVC019 M01/M05 A3035 RMK SC8 SLP281
Loading
Personal Weather Stations






























Interactive Weather Map New forecast layout! Learn more

10-Day Weather Forecast

Advertisements
Track Severe Weather on mobile